sensor_id;sensor_type;location;lat;lon;timestamp;pressure;altitude;pressure_sealevel;temperature;humidity
25350;BME280;13302;48.796;11.978;2023-10-13T00:02:32;96990.16;;;15.36;46.56
25350;BME280;13302;48.796;11.978;2023-10-13T00:05:35;96996.47;;;15.33;46.49
25350;BME280;13302;48.796;11.978;2023-10-13T00:08:22;96992.88;;;15.32;46.77
25350;BME280;13302;48.796;11.978;2023-10-13T00:11:14;96989.28;;;15.32;46.39
25350;BME280;13302;48.796;11.978;2023-10-13T00:14:01;96994.50;;;15.33;46.50
25350;BME280;13302;48.796;11.978;2023-10-13T00:16:50;96992.13;;;15.35;46.39
25350;BME280;13302;48.796;11.978;2023-10-13T00:19:53;96992.94;;;15.36;46.43
25350;BME280;13302;48.796;11.978;2023-10-13T00:22:40;96992.97;;;15.39;46.50
25350;BME280;13302;48.796;11.978;2023-10-13T00:25:28;96991.03;;;15.43;46.60
25350;BME280;13302;48.796;11.978;2023-10-13T00:28:26;96991.47;;;15.45;46.28
25350;BME280;13302;48.796;11.978;2023-10-13T00:31:22;96993.88;;;15.47;46.29
25350;BME280;13302;48.796;11.978;2023-10-13T00:34:09;96989.88;;;15.48;46.06
25350;BME280;13302;48.796;11.978;2023-10-13T00:37:26;96982.34;;;15.48;45.83
25350;BME280;13302;48.796;11.978;2023-10-13T00:40:28;96980.34;;;15.49;46.06
25350;BME280;13302;48.796;11.978;2023-10-13T00:43:19;96970.38;;;15.48;45.84
25350;BME280;13302;48.796;11.978;2023-10-13T00:46:06;96978.75;;;15.48;45.45
25350;BME280;13302;48.796;11.978;2023-10-13T00:48:55;96973.94;;;15.45;45.51
25350;BME280;13302;48.796;11.978;2023-10-13T00:51:43;96972.34;;;15.44;45.52
25350;BME280;13302;48.796;11.978;2023-10-13T00:54:36;96973.09;;;15.41;45.82
25350;BME280;13302;48.796;11.978;2023-10-13T00:57:24;96969.09;;;15.38;45.74
25350;BME280;13302;48.796;11.978;2023-10-13T01:00:14;96969.84;;;15.35;45.47
25350;BME280;13302;48.796;11.978;2023-10-13T01:03:12;96979.34;;;15.31;45.23
25350;BME280;13302;48.796;11.978;2023-10-13T01:05:59;96982.47;;;15.26;44.76
25350;BME280;13302;48.796;11.978;2023-10-13T01:08:48;96983.16;;;15.19;44.54
25350;BME280;13302;48.796;11.978;2023-10-13T01:11:42;96990.25;;;15.13;44.44
25350;BME280;13302;48.796;11.978;2023-10-13T01:14:30;96991.41;;;15.08;44.64
25350;BME280;13302;48.796;11.978;2023-10-13T01:17:17;97006.88;;;15.06;44.80
25350;BME280;13302;48.796;11.978;2023-10-13T01:20:05;97002.44;;;15.01;44.09
25350;BME280;13302;48.796;11.978;2023-10-13T01:22:52;96998.00;;;14.97;44.39
25350;BME280;13302;48.796;11.978;2023-10-13T01:25:42;96994.38;;;14.93;44.20
25350;BME280;13302;48.796;11.978;2023-10-13T01:28:29;96988.66;;;14.86;44.20
25350;BME280;13302;48.796;11.978;2023-10-13T01:31:17;96983.84;;;14.83;44.55
25350;BME280;13302;48.796;11.978;2023-10-13T01:34:16;96984.16;;;14.78;44.52
25350;BME280;13302;48.796;11.978;2023-10-13T01:37:09;96980.97;;;14.76;44.42
25350;BME280;13302;48.796;11.978;2023-10-13T01:39:57;96978.91;;;14.69;44.48
25350;BME280;13302;48.796;11.978;2023-10-13T01:42:46;96980.00;;;14.64;44.26
25350;BME280;13302;48.796;11.978;2023-10-13T01:45:33;96982.72;;;14.61;44.30
25350;BME280;13302;48.796;11.978;2023-10-13T01:48:21;96977.91;;;14.58;44.54
25350;BME280;13302;48.796;11.978;2023-10-13T01:51:09;96979.03;;;14.53;44.38
25350;BME280;13302;48.796;11.978;2023-10-13T01:53:57;96978.56;;;14.48;44.18
25350;BME280;13302;48.796;11.978;2023-10-13T01:56:44;96986.47;;;14.46;44.04
25350;BME280;13302;48.796;11.978;2023-10-13T01:59:31;96974.94;;;14.44;44.45
25350;BME280;13302;48.796;11.978;2023-10-13T02:02:18;96986.78;;;14.41;44.47
25350;BME280;13302;48.796;11.978;2023-10-13T02:05:13;96982.38;;;14.36;43.98
25350;BME280;13302;48.796;11.978;2023-10-13T02:08:03;96986.66;;;14.34;43.80
25350;BME280;13302;48.796;11.978;2023-10-13T02:10:55;96986.16;;;14.28;43.59
25350;BME280;13302;48.796;11.978;2023-10-13T02:13:42;96979.38;;;14.25;43.97
25350;BME280;13302;48.796;11.978;2023-10-13T02:16:35;96975.75;;;14.21;43.69
25350;BME280;13302;48.796;11.978;2023-10-13T02:19:23;96971.81;;;14.22;44.18
25350;BME280;13302;48.796;11.978;2023-10-13T02:22:14;96980.44;;;14.17;43.79
25350;BME280;13302;48.796;11.978;2023-10-13T02:25:17;96982.38;;;14.13;43.64
25350;BME280;13302;48.796;11.978;2023-10-13T02:28:22;96977.53;;;14.10;43.98
25350;BME280;13302;48.796;11.978;2023-10-13T02:31:15;96986.66;;;14.11;43.93
25350;BME280;13302;48.796;11.978;2023-10-13T02:34:05;96984.25;;;14.09;44.22
25350;BME280;13302;48.796;11.978;2023-10-13T02:36:55;96988.59;;;14.07;43.93
25350;BME280;13302;48.796;11.978;2023-10-13T02:39:42;96982.59;;;14.05;44.02
25350;BME280;13302;48.796;11.978;2023-10-13T02:42:29;96978.94;;;14.01;43.84
25350;BME280;13302;48.796;11.978;2023-10-13T02:45:16;96970.25;;;14.02;43.92
25350;BME280;13302;48.796;11.978;2023-10-13T02:48:07;96974.19;;;14.01;43.96
25350;BME280;13302;48.796;11.978;2023-10-13T02:51:04;96977.72;;;13.98;43.62
25350;BME280;13302;48.796;11.978;2023-10-13T02:54:05;96974.88;;;13.95;43.63
25350;BME280;13302;48.796;11.978;2023-10-13T02:56:58;96973.25;;;13.94;43.81
25350;BME280;13302;48.796;11.978;2023-10-13T02:59:50;96970.44;;;13.90;43.77
25350;BME280;13302;48.796;11.978;2023-10-13T03:02:44;96967.16;;;13.85;43.46
25350;BME280;13302;48.796;11.978;2023-10-13T03:05:34;96960.78;;;13.84;43.43
25350;BME280;13302;48.796;11.978;2023-10-13T03:08:22;96953.94;;;13.78;43.44
25350;BME280;13302;48.796;11.978;2023-10-13T03:11:14;96965.41;;;13.76;43.70
25350;BME280;13302;48.796;11.978;2023-10-13T03:14:01;96960.16;;;13.71;43.76
25350;BME280;13302;48.796;11.978;2023-10-13T03:17:00;96962.13;;;13.71;43.62
25350;BME280;13302;48.796;11.978;2023-10-13T03:19:52;96972.38;;;13.67;43.09
25350;BME280;13302;48.796;11.978;2023-10-13T03:22:43;96971.50;;;13.63;43.21
25350;BME280;13302;48.796;11.978;2023-10-13T03:25:33;96960.03;;;13.64;43.50
25350;BME280;13302;48.796;11.978;2023-10-13T03:28:30;96958.81;;;13.62;43.43
25350;BME280;13302;48.796;11.978;2023-10-13T03:31:21;96957.53;;;13.59;43.75
25350;BME280;13302;48.796;11.978;2023-10-13T03:34:15;96957.13;;;13.57;43.71
25350;BME280;13302;48.796;11.978;2023-10-13T03:37:03;96954.34;;;13.57;43.68
25350;BME280;13302;48.796;11.978;2023-10-13T03:39:59;96960.72;;;13.58;43.68
25350;BME280;13302;48.796;11.978;2023-10-13T03:42:57;96962.16;;;13.52;43.52
25350;BME280;13302;48.796;11.978;2023-10-13T03:45:49;96955.00;;;13.51;43.40
25350;BME280;13302;48.796;11.978;2023-10-13T03:48:39;96963.34;;;13.51;43.65
25350;BME280;13302;48.796;11.978;2023-10-13T03:51:39;96951.06;;;13.52;43.67
25350;BME280;13302;48.796;11.978;2023-10-13T03:54:27;96948.22;;;13.48;43.69
25350;BME280;13302;48.796;11.978;2023-10-13T03:57:17;96951.00;;;13.48;44.03
25350;BME280;13302;48.796;11.978;2023-10-13T04:00:05;96959.69;;;13.47;43.77
25350;BME280;13302;48.796;11.978;2023-10-13T04:02:58;96954.06;;;13.43;43.77
25350;BME280;13302;48.796;11.978;2023-10-13T04:05:56;96947.72;;;13.43;43.58
25350;BME280;13302;48.796;11.978;2023-10-13T04:08:53;96949.69;;;13.42;43.56
25350;BME280;13302;48.796;11.978;2023-10-13T04:12:15;96949.63;;;13.39;43.50
25350;BME280;13302;48.796;11.978;2023-10-13T04:15:13;96950.41;;;13.39;43.48
25350;BME280;13302;48.796;11.978;2023-10-13T04:18:05;96946.84;;;13.39;43.71
25350;BME280;13302;48.796;11.978;2023-10-13T04:21:01;96940.47;;;13.38;43.33
25350;BME280;13302;48.796;11.978;2023-10-13T04:27:11;96939.66;;;13.38;43.49
25350;BME280;13302;48.796;11.978;2023-10-13T04:29:58;96933.34;;;13.37;43.48
25350;BME280;13302;48.796;11.978;2023-10-13T04:32:54;96937.63;;;13.34;43.42
25350;BME280;13302;48.796;11.978;2023-10-13T04:36:07;96942.75;;;13.32;43.45
25350;BME280;13302;48.796;11.978;2023-10-13T04:39:03;96938.38;;;13.31;43.37
25350;BME280;13302;48.796;11.978;2023-10-13T04:41:51;96932.81;;;13.31;43.31
25350;BME280;13302;48.796;11.978;2023-10-13T04:44:41;96941.16;;;13.31;43.50
25350;BME280;13302;48.796;11.978;2023-10-13T04:47:28;96940.34;;;13.31;43.52
25350;BME280;13302;48.796;11.978;2023-10-13T04:50:16;96939.19;;;13.32;43.48
25350;BME280;13302;48.796;11.978;2023-10-13T04:53:15;96934.44;;;13.32;43.30
25350;BME280;13302;48.796;11.978;2023-10-13T04:56:20;96935.25;;;13.33;43.62
25350;BME280;13302;48.796;11.978;2023-10-13T04:59:29;96933.69;;;13.36;43.81
25350;BME280;13302;48.796;11.978;2023-10-13T05:02:24;96934.13;;;13.38;43.78
25350;BME280;13302;48.796;11.978;2023-10-13T05:05:23;96925.78;;;13.38;44.36
25350;BME280;13302;48.796;11.978;2023-10-13T05:08:13;96924.69;;;13.42;44.33
25350;BME280;13302;48.796;11.978;2023-10-13T05:11:37;96919.56;;;13.44;44.25
25350;BME280;13302;48.796;11.978;2023-10-13T05:14:43;96925.19;;;13.48;44.08
25350;BME280;13302;48.796;11.978;2023-10-13T05:17:50;96936.75;;;13.50;44.51
25350;BME280;13302;48.796;11.978;2023-10-13T05:20:56;96934.41;;;13.52;44.23
25350;BME280;13302;48.796;11.978;2023-10-13T05:24:02;96936.81;;;13.53;44.07
25350;BME280;13302;48.796;11.978;2023-10-13T05:27:08;96942.78;;;13.55;43.77
25350;BME280;13302;48.796;11.978;2023-10-13T05:30:32;96934.84;;;13.54;43.45
25350;BME280;13302;48.796;11.978;2023-10-13T05:33:38;96940.41;;;13.54;43.63
25350;BME280;13302;48.796;11.978;2023-10-13T05:36:44;96941.13;;;13.51;43.85
25350;BME280;13302;48.796;11.978;2023-10-13T05:39:49;96937.53;;;13.50;43.62
25350;BME280;13302;48.796;11.978;2023-10-13T05:43:02;96934.34;;;13.48;43.71
25350;BME280;13302;48.796;11.978;2023-10-13T05:46:08;96935.88;;;13.46;43.65
25350;BME280;13302;48.796;11.978;2023-10-13T05:49:27;96942.16;;;13.43;43.63
25350;BME280;13302;48.796;11.978;2023-10-13T05:52:36;96945.31;;;13.41;43.72
25350;BME280;13302;48.796;11.978;2023-10-13T05:55:42;96943.63;;;13.37;43.80
25350;BME280;13302;48.796;11.978;2023-10-13T05:58:47;96948.38;;;13.36;43.53
25350;BME280;13302;48.796;11.978;2023-10-13T06:01:53;96947.94;;;13.34;43.64
25350;BME280;13302;48.796;11.978;2023-10-13T06:05:06;96946.34;;;13.33;44.05
25350;BME280;13302;48.796;11.978;2023-10-13T06:08:12;96947.13;;;13.33;44.27
25350;BME280;13302;48.796;11.978;2023-10-13T06:11:17;96942.75;;;13.32;44.09
25350;BME280;13302;48.796;11.978;2023-10-13T06:14:23;96955.03;;;13.31;43.91
25350;BME280;13302;48.796;11.978;2023-10-13T06:17:28;96953.41;;;13.30;44.23
25350;BME280;13302;48.796;11.978;2023-10-13T06:20:38;96950.91;;;13.25;44.32
25350;BME280;13302;48.796;11.978;2023-10-13T06:23:44;96951.72;;;13.26;44.39
25350;BME280;13302;48.796;11.978;2023-10-13T06:26:54;96954.22;;;13.31;44.66
25350;BME280;13302;48.796;11.978;2023-10-13T06:30:00;96954.28;;;13.34;44.77
25350;BME280;13302;48.796;11.978;2023-10-13T06:32:53;96960.28;;;13.37;44.62
25350;BME280;13302;48.796;11.978;2023-10-13T06:35:49;96956.78;;;13.40;45.13
25350;BME280;13302;48.796;11.978;2023-10-13T06:38:37;96957.22;;;13.42;44.99
25350;BME280;13302;48.796;11.978;2023-10-13T06:41:24;96960.06;;;13.45;45.09
25350;BME280;13302;48.796;11.978;2023-10-13T06:44:22;96959.31;;;13.48;45.33
25350;BME280;13302;48.796;11.978;2023-10-13T06:47:09;96956.63;;;13.52;45.38
25350;BME280;13302;48.796;11.978;2023-10-13T06:49:56;96957.06;;;13.54;45.68
25350;BME280;13302;48.796;11.978;2023-10-13T06:52:44;96963.09;;;13.59;45.50
25350;BME280;13302;48.796;11.978;2023-10-13T06:55:31;96965.94;;;13.63;45.86
25350;BME280;13302;48.796;11.978;2023-10-13T06:58:26;96965.66;;;13.68;46.05
25350;BME280;13302;48.796;11.978;2023-10-13T07:01:14;96967.31;;;13.72;46.04
25350;BME280;13302;48.796;11.978;2023-10-13T07:04:02;96965.06;;;13.78;46.24
25350;BME280;13302;48.796;11.978;2023-10-13T07:06:50;96961.16;;;13.83;46.35
25350;BME280;13302;48.796;11.978;2023-10-13T07:09:37;96968.81;;;13.89;46.54
25350;BME280;13302;48.796;11.978;2023-10-13T07:12:26;96972.09;;;13.95;46.38
25350;BME280;13302;48.796;11.978;2023-10-13T07:15:13;96962.63;;;13.99;46.62
25350;BME280;13302;48.796;11.978;2023-10-13T07:18:03;96973.06;;;14.06;46.77
25350;BME280;13302;48.796;11.978;2023-10-13T07:20:52;96964.06;;;14.12;46.99
25350;BME280;13302;48.796;11.978;2023-10-13T07:23:44;96972.91;;;14.18;47.12
25350;BME280;13302;48.796;11.978;2023-10-13T07:26:47;96973.81;;;14.25;46.87
25350;BME280;13302;48.796;11.978;2023-10-13T07:29:44;96976.72;;;14.33;47.07
25350;BME280;13302;48.796;11.978;2023-10-13T07:32:32;96976.03;;;14.39;46.98
25350;BME280;13302;48.796;11.978;2023-10-13T07:35:21;96979.75;;;14.47;46.98
25350;BME280;13302;48.796;11.978;2023-10-13T07:38:11;96977.44;;;14.52;47.02
25350;BME280;13302;48.796;11.978;2023-10-13T07:41:00;96982.72;;;14.61;47.04
25350;BME280;13302;48.796;11.978;2023-10-13T07:43:54;96982.03;;;14.67;46.90
25350;BME280;13302;48.796;11.978;2023-10-13T07:46:44;96974.59;;;14.75;46.93
25350;BME280;13302;48.796;11.978;2023-10-13T07:49:38;96975.09;;;14.81;46.95
25350;BME280;13302;48.796;11.978;2023-10-13T07:52:26;96983.53;;;14.88;46.83
25350;BME280;13302;48.796;11.978;2023-10-13T07:55:23;96970.53;;;14.95;46.79
25350;BME280;13302;48.796;11.978;2023-10-13T07:58:11;96975.41;;;15.02;46.53
25350;BME280;13302;48.796;11.978;2023-10-13T08:01:00;96970.28;;;15.07;46.66
25350;BME280;13302;48.796;11.978;2023-10-13T08:03:54;96974.38;;;15.13;46.64
25350;BME280;13302;48.796;11.978;2023-10-13T08:06:59;96968.88;;;15.21;46.71
25350;BME280;13302;48.796;11.978;2023-10-13T08:10:00;96967.78;;;15.29;46.31
25350;BME280;13302;48.796;11.978;2023-10-13T08:12:48;96971.84;;;15.35;46.44
25350;BME280;13302;48.796;11.978;2023-10-13T08:15:35;96960.78;;;15.42;46.23
25350;BME280;13302;48.796;11.978;2023-10-13T08:18:23;96958.44;;;15.47;46.01
25350;BME280;13302;48.796;11.978;2023-10-13T08:21:30;96958.91;;;15.53;45.69
25350;BME280;13302;48.796;11.978;2023-10-13T08:24:19;96949.81;;;15.59;44.96
25350;BME280;13302;48.796;11.978;2023-10-13T08:27:26;96944.72;;;15.65;44.94
25350;BME280;13302;48.796;11.978;2023-10-13T08:30:35;96953.16;;;15.72;44.52
25350;BME280;13302;48.796;11.978;2023-10-13T08:33:38;96950.47;;;15.79;44.25
25350;BME280;13302;48.796;11.978;2023-10-13T08:36:25;96956.09;;;15.86;44.05
25350;BME280;13302;48.796;11.978;2023-10-13T08:39:16;96951.41;;;15.94;43.92
25350;BME280;13302;48.796;11.978;2023-10-13T08:42:33;96945.88;;;16.01;43.93
25350;BME280;13302;48.796;11.978;2023-10-13T08:45:41;96947.16;;;16.11;43.77
25350;BME280;13302;48.796;11.978;2023-10-13T08:48:31;96949.59;;;16.16;43.12
25350;BME280;13302;48.796;11.978;2023-10-13T08:51:19;96942.09;;;16.23;42.77
25350;BME280;13302;48.796;11.978;2023-10-13T08:54:26;96948.13;;;16.29;42.24
25350;BME280;13302;48.796;11.978;2023-10-13T08:57:26;96943.78;;;16.35;42.21
25350;BME280;13302;48.796;11.978;2023-10-13T09:00:22;96939.44;;;16.41;42.16
25350;BME280;13302;48.796;11.978;2023-10-13T09:03:35;96944.28;;;16.47;42.08
25350;BME280;13302;48.796;11.978;2023-10-13T09:06:28;96941.16;;;16.52;40.87
25350;BME280;13302;48.796;11.978;2023-10-13T09:09:15;96942.00;;;16.60;41.36
25350;BME280;13302;48.796;11.978;2023-10-13T09:15:08;96944.06;;;16.70;40.53
25350;BME280;13302;48.796;11.978;2023-10-13T09:17:59;96940.06;;;16.75;40.44
25350;BME280;13302;48.796;11.978;2023-10-13T09:21:02;96945.31;;;16.80;40.13
25350;BME280;13302;48.796;11.978;2023-10-13T09:24:13;96940.16;;;16.89;40.01
25350;BME280;13302;48.796;11.978;2023-10-13T09:27:09;96937.41;;;16.92;39.46
25350;BME280;13302;48.796;11.978;2023-10-13T09:30:01;96924.66;;;16.98;39.43
25350;BME280;13302;48.796;11.978;2023-10-13T09:33:05;96931.47;;;17.05;39.03
25350;BME280;13302;48.796;11.978;2023-10-13T09:35:55;96935.88;;;17.09;39.37
25350;BME280;13302;48.796;11.978;2023-10-13T09:38:47;96924.34;;;17.14;38.90
25350;BME280;13302;48.796;11.978;2023-10-13T09:41:55;96921.59;;;17.25;39.00
25350;BME280;13302;48.796;11.978;2023-10-13T09:44:46;96918.84;;;17.32;39.19
25350;BME280;13302;48.796;11.978;2023-10-13T09:47:48;96919.25;;;17.37;38.71
25350;BME280;13302;48.796;11.978;2023-10-13T09:50:40;96919.69;;;17.47;38.76
25350;BME280;13302;48.796;11.978;2023-10-13T09:53:32;96920.13;;;17.52;38.30
25350;BME280;13302;48.796;11.978;2023-10-13T09:56:25;96908.13;;;17.59;38.03
25350;BME280;13302;48.796;11.978;2023-10-13T09:59:16;96908.13;;;17.66;38.44
25350;BME280;13302;48.796;11.978;2023-10-13T10:02:06;96899.78;;;17.73;38.27
25350;BME280;13302;48.796;11.978;2023-10-13T10:05:05;96904.97;;;17.78;38.09
25350;BME280;13302;48.796;11.978;2023-10-13T10:08:08;96906.19;;;17.84;37.69
25350;BME280;13302;48.796;11.978;2023-10-13T10:11:04;96905.41;;;17.87;37.31
25350;BME280;13302;48.796;11.978;2023-10-13T10:14:04;96903.41;;;17.95;37.48
25350;BME280;13302;48.796;11.978;2023-10-13T10:17:05;96893.84;;;17.99;35.97
25350;BME280;13302;48.796;11.978;2023-10-13T10:19:56;96889.84;;;18.07;36.94
25350;BME280;13302;48.796;11.978;2023-10-13T10:22:57;96893.44;;;18.15;36.62
25350;BME280;13302;48.796;11.978;2023-10-13T10:25:48;96891.41;;;18.22;36.76
25350;BME280;13302;48.796;11.978;2023-10-13T10:28:39;96884.63;;;18.27;36.19
25350;BME280;13302;48.796;11.978;2023-10-13T10:31:32;96884.63;;;18.34;36.18
25350;BME280;13302;48.796;11.978;2023-10-13T10:34:30;96883.00;;;18.40;35.53
25350;BME280;13302;48.796;11.978;2023-10-13T10:37:20;96888.59;;;18.47;35.96
25350;BME280;13302;48.796;11.978;2023-10-13T10:40:10;96880.63;;;18.53;35.58
25350;BME280;13302;48.796;11.978;2023-10-13T10:43:07;96864.59;;;18.60;35.79
25350;BME280;13302;48.796;11.978;2023-10-13T10:46:28;96861.78;;;18.64;34.74
25350;BME280;13302;48.796;11.978;2023-10-13T10:49:28;96864.97;;;18.69;34.51
25350;BME280;13302;48.796;11.978;2023-10-13T10:52:17;96869.75;;;18.76;34.77
25350;BME280;13302;48.796;11.978;2023-10-13T10:55:07;96852.53;;;18.81;34.31
25350;BME280;13302;48.796;11.978;2023-10-13T10:58:00;96850.13;;;18.87;34.32
25350;BME280;13302;48.796;11.978;2023-10-13T11:00:48;96845.28;;;18.94;34.39
25350;BME280;13302;48.796;11.978;2023-10-13T11:03:38;96841.63;;;19.01;34.32
25350;BME280;13302;48.796;11.978;2023-10-13T11:06:28;96838.84;;;19.08;34.54
25350;BME280;13302;48.796;11.978;2023-10-13T11:09:24;96836.81;;;19.12;33.51
25350;BME280;13302;48.796;11.978;2023-10-13T11:12:14;96831.56;;;19.17;34.03
25350;BME280;13302;48.796;11.978;2023-10-13T11:15:08;96818.78;;;19.20;33.54
25350;BME280;13302;48.796;11.978;2023-10-13T11:18:09;96821.56;;;19.23;34.21
25350;BME280;13302;48.796;11.978;2023-10-13T11:21:00;96802.69;;;19.31;33.76
25350;BME280;13302;48.796;11.978;2023-10-13T11:23:57;96803.84;;;19.37;33.89
25350;BME280;13302;48.796;11.978;2023-10-13T11:26:44;96794.19;;;19.42;33.17
25350;BME280;13302;48.796;11.978;2023-10-13T11:29:41;96788.16;;;19.47;33.04
25350;BME280;13302;48.796;11.978;2023-10-13T11:32:28;96781.31;;;19.51;32.98
25350;BME280;13302;48.796;11.978;2023-10-13T11:35:15;96780.09;;;19.56;33.06
25350;BME280;13302;48.796;11.978;2023-10-13T11:38:10;96774.44;;;19.59;32.86
25350;BME280;13302;48.796;11.978;2023-10-13T11:41:04;96781.25;;;19.62;32.01
25350;BME280;13302;48.796;11.978;2023-10-13T11:43:52;96782.78;;;19.66;32.56
25350;BME280;13302;48.796;11.978;2023-10-13T11:46:40;96774.38;;;19.70;32.24
25350;BME280;13302;48.796;11.978;2023-10-13T11:49:30;96771.91;;;19.76;32.52
25350;BME280;13302;48.796;11.978;2023-10-13T11:52:17;96765.84;;;19.81;32.17
25350;BME280;13302;48.796;11.978;2023-10-13T11:55:05;96768.25;;;19.86;32.19
25350;BME280;13302;48.796;11.978;2023-10-13T11:57:52;96757.38;;;19.88;31.50
25350;BME280;13302;48.796;11.978;2023-10-13T12:00:39;96749.75;;;19.92;31.56
25350;BME280;13302;48.796;11.978;2023-10-13T12:03:42;96750.94;;;19.94;31.42
25350;BME280;13302;48.796;11.978;2023-10-13T12:06:48;96742.47;;;19.98;31.99
25350;BME280;13302;48.796;11.978;2023-10-13T12:09:51;96740.00;;;20.03;31.88
25350;BME280;13302;48.796;11.978;2023-10-13T12:12:41;96737.19;;;20.07;30.98
25350;BME280;13302;48.796;11.978;2023-10-13T12:15:30;96732.31;;;20.11;31.27
25350;BME280;13302;48.796;11.978;2023-10-13T12:18:24;96725.81;;;20.17;31.06
25350;BME280;13302;48.796;11.978;2023-10-13T12:21:14;96722.97;;;20.21;31.08
25350;BME280;13302;48.796;11.978;2023-10-13T12:24:06;96722.13;;;20.28;31.27
25350;BME280;13302;48.796;11.978;2023-10-13T12:26:58;96710.84;;;20.31;30.53
25350;BME280;13302;48.796;11.978;2023-10-13T12:29:46;96702.78;;;20.33;29.61
25350;BME280;13302;48.796;11.978;2023-10-13T12:32:34;96706.78;;;20.36;29.49
25350;BME280;13302;48.796;11.978;2023-10-13T12:35:21;96700.31;;;20.39;29.43
25350;BME280;13302;48.796;11.978;2023-10-13T12:38:22;96694.66;;;20.42;29.66
25350;BME280;13302;48.796;11.978;2023-10-13T12:41:28;96691.41;;;20.47;29.54
25350;BME280;13302;48.796;11.978;2023-10-13T12:44:33;96691.38;;;20.51;29.26
25350;BME280;13302;48.796;11.978;2023-10-13T12:47:39;96688.50;;;20.54;29.44
25350;BME280;13302;48.796;11.978;2023-10-13T12:50:48;96677.22;;;20.58;29.38
25350;BME280;13302;48.796;11.978;2023-10-13T12:53:56;96676.38;;;20.61;29.14
25350;BME280;13302;48.796;11.978;2023-10-13T12:56:51;96679.94;;;20.65;28.74
25350;BME280;13302;48.796;11.978;2023-10-13T12:59:44;96673.47;;;20.68;28.75
25350;BME280;13302;48.796;11.978;2023-10-13T13:02:31;96669.81;;;20.71;28.88
25350;BME280;13302;48.796;11.978;2023-10-13T13:11:14;96661.44;;;19.62;29.69
25350;BME280;13302;48.796;11.978;2023-10-13T13:14:01;96655.59;;;19.84;28.44
25350;BME280;13302;48.796;11.978;2023-10-13T13:50:06;96610.25;;;16.55;33.10
25350;BME280;13302;48.796;11.978;2023-10-13T13:53:03;96602.25;;;17.49;31.68
25350;BME280;13302;48.796;11.978;2023-10-13T13:55:55;96594.81;;;18.26;31.00
25350;BME280;13302;48.796;11.978;2023-10-13T13:58:47;96594.88;;;18.81;29.76
25350;BME280;13302;48.796;11.978;2023-10-13T14:01:34;96601.75;;;19.24;29.19
25350;BME280;13302;48.796;11.978;2023-10-13T14:04:24;96584.19;;;19.58;29.03
25350;BME280;13302;48.796;11.978;2023-10-13T14:07:13;96588.72;;;19.86;29.02
25350;BME280;13302;48.796;11.978;2023-10-13T14:10:02;96590.81;;;20.08;28.33
25350;BME280;13302;48.796;11.978;2023-10-13T14:12:53;96578.16;;;20.27;28.28
25350;BME280;13302;48.796;11.978;2023-10-13T14:15:40;96577.53;;;20.43;28.15
25350;BME280;13302;48.796;11.978;2023-10-13T14:18:30;96573.41;;;20.51;27.20
25350;BME280;13302;48.796;11.978;2023-10-13T14:21:18;96561.59;;;20.63;27.22
25350;BME280;13302;48.796;11.978;2023-10-13T14:24:06;96563.00;;;20.75;27.25
25350;BME280;13302;48.796;11.978;2023-10-13T14:27:03;96560.47;;;20.84;26.95
25350;BME280;13302;48.796;11.978;2023-10-13T14:29:59;96559.13;;;20.92;26.54
25350;BME280;13302;48.796;11.978;2023-10-13T14:32:46;96545.75;;;20.99;26.66
25350;BME280;13302;48.796;11.978;2023-10-13T14:35:35;96549.66;;;21.05;26.27
25350;BME280;13302;48.796;11.978;2023-10-13T14:38:23;96551.16;;;21.14;26.29
25350;BME280;13302;48.796;11.978;2023-10-13T14:41:10;96536.25;;;21.17;25.99
25350;BME280;13302;48.796;11.978;2023-10-13T14:43:57;96536.19;;;21.20;26.32
25350;BME280;13302;48.796;11.978;2023-10-13T14:46:52;96534.09;;;21.24;25.94
25350;BME280;13302;48.796;11.978;2023-10-13T14:49:42;96529.19;;;21.28;26.32
25350;BME280;13302;48.796;11.978;2023-10-13T14:52:29;96526.75;;;21.30;26.13
25350;BME280;13302;48.796;11.978;2023-10-13T14:55:19;96529.13;;;21.32;25.95
25350;BME280;13302;48.796;11.978;2023-10-13T14:58:07;96528.72;;;21.33;26.07
25350;BME280;13302;48.796;11.978;2023-10-13T15:00:54;96519.06;;;21.34;26.00
25350;BME280;13302;48.796;11.978;2023-10-13T15:03:43;96517.81;;;21.35;26.16
25350;BME280;13302;48.796;11.978;2023-10-13T15:06:30;96513.78;;;21.36;26.52
25350;BME280;13302;48.796;11.978;2023-10-13T15:09:17;96507.75;;;21.38;26.58
25350;BME280;13302;48.796;11.978;2023-10-13T15:12:11;96509.75;;;21.37;26.75
25350;BME280;13302;48.796;11.978;2023-10-13T15:15:00;96503.75;;;21.35;27.05
25350;BME280;13302;48.796;11.978;2023-10-13T15:17:47;96498.94;;;21.36;26.91
25350;BME280;13302;48.796;11.978;2023-10-13T15:20:40;96499.38;;;21.34;26.85
25350;BME280;13302;48.796;11.978;2023-10-13T15:23:30;96499.78;;;21.33;27.22
25350;BME280;13302;48.796;11.978;2023-10-13T15:26:18;96493.38;;;21.32;27.11
25350;BME280;13302;48.796;11.978;2023-10-13T15:29:08;96498.66;;;21.30;27.62
25350;BME280;13302;48.796;11.978;2023-10-13T15:32:04;96501.09;;;21.28;27.64
25350;BME280;13302;48.796;11.978;2023-10-13T15:35:12;96505.97;;;21.24;28.15
25350;BME280;13302;48.796;11.978;2023-10-13T15:38:03;96490.41;;;21.20;28.27
25350;BME280;13302;48.796;11.978;2023-10-13T15:40:50;96491.69;;;21.15;28.05
25350;BME280;13302;48.796;11.978;2023-10-13T15:43:42;96491.41;;;21.10;28.19
25350;BME280;13302;48.796;11.978;2023-10-13T15:46:36;96485.88;;;21.02;28.02
25350;BME280;13302;48.796;11.978;2023-10-13T15:49:44;96483.19;;;20.95;28.30
25350;BME280;13302;48.796;11.978;2023-10-13T15:52:31;96472.44;;;20.90;28.54
25350;BME280;13302;48.796;11.978;2023-10-13T15:55:18;96477.78;;;20.85;28.82
25350;BME280;13302;48.796;11.978;2023-10-13T15:58:05;96477.47;;;20.79;29.24